Time;durP1;ratioP1;P1;durP2;ratioP2;P2;SDS_P1;SDS_P2;PMS_P1;PMS_P2;Temp;Humidity;BMP_temperature;BMP_pressure;BME280_temperature;BME280_humidity;BME280_pressure;Samples;Min_cycle;Max_cycle;Signal;HPM_P1;HPM_P2
2022/12/05 00:00:09;;;;;;;17.95;14.23;;;5.30;99.90;5.50;99469.00;;;;344103;28;91688;-90
2022/12/05 00:00:21;;;;;;;19.08;14.82;;;5.30;99.90;5.50;99468.00;;;;341501;28;85923;-90
2022/12/05 00:00:33;;;;;;;18.75;14.85;;;5.20;99.90;5.40;99468.00;;;;345382;28;90815;-90
2022/12/05 00:00:45;;;;;;;17.83;14.40;;;5.30;99.90;5.50;99470.00;;;;341636;28;87491;-90
2022/12/05 00:00:57;;;;;;;17.88;14.57;;;5.30;99.90;5.50;99470.00;;;;342582;28;91480;-90
2022/12/05 00:01:20;;;;;;;18.38;14.82;;;5.30;99.90;5.50;99480.00;;;;342960;28;86176;-91
2022/12/05 00:01:39;;;;;;;19.67;14.73;;;5.20;99.90;5.50;99484.00;;;;342626;28;92988;-90
2022/12/05 00:01:51;;;;;;;18.83;13.93;;;5.30;99.90;5.50;99478.00;;;;342925;28;86807;-90
2022/12/05 00:02:03;;;;;;;18.77;14.63;;;5.20;99.90;5.60;99468.00;;;;340958;28;91704;-91
2022/12/05 00:02:15;;;;;;;17.88;14.63;;;5.30;99.90;5.60;99470.00;;;;345705;28;86132;-91
2022/12/05 00:02:27;;;;;;;17.98;14.20;;;5.30;99.90;5.60;99475.00;;;;339868;28;92103;-90
2022/12/05 00:02:39;;;;;;;17.77;14.23;;;5.30;99.90;5.50;99474.00;;;;341566;28;87264;-91
2022/12/05 00:02:51;;;;;;;17.55;13.88;;;5.30;99.90;5.70;99473.00;;;;341475;28;88945;-90
2022/12/05 00:03:04;;;;;;;18.67;14.02;;;5.30;99.90;5.60;99473.00;;;;342929;28;86970;-91
2022/12/05 00:03:16;;;;;;;18.92;14.07;;;5.30;99.90;5.60;99470.00;;;;341231;28;92738;-90
2022/12/05 00:03:28;;;;;;;18.23;14.70;;;5.30;99.90;5.60;99477.00;;;;344377;28;85794;-90
2022/12/05 00:03:39;;;;;;;17.98;14.77;;;5.30;99.90;5.60;99468.00;;;;341278;28;90852;-90
2022/12/05 00:03:54;;;;;;;18.00;14.40;;;5.30;99.90;5.60;99478.00;;;;342930;28;86783;-90
2022/12/05 00:04:09;;;;;;;19.05;14.45;;;5.30;99.90;5.60;99472.00;;;;342671;28;92173;-90
2022/12/05 00:04:21;;;;;;;19.60;14.70;;;5.30;99.90;5.60;99473.00;;;;342826;28;86699;-90
2022/12/05 00:04:33;;;;;;;20.30;15.13;;;5.30;99.90;5.60;99476.00;;;;344045;28;90747;-90
2022/12/05 00:04:45;;;;;;;19.73;14.95;;;5.30;99.90;5.60;99475.00;;;;342968;28;87086;-90
2022/12/05 00:04:57;;;;;;;19.15;14.50;;;5.30;99.90;5.60;99476.00;;;;339963;28;90796;-90
2022/12/05 00:05:10;;;;;;;20.73;14.50;;;5.30;99.90;5.50;99473.00;;;;344333;28;87730;-91
2022/12/05 00:05:22;;;;;;;19.55;14.45;;;5.20;99.90;5.60;99477.00;;;;342624;28;92974;-90
2022/12/05 00:05:35;;;;;;;18.65;14.18;;;5.20;99.90;5.50;99475.00;;;;344322;28;86209;-91
2022/12/05 00:05:47;;;;;;;17.48;13.48;;;5.30;99.90;5.50;99480.00;;;;341378;28;91711;-90
2022/12/05 00:05:59;;;;;;;17.50;14.05;;;5.30;99.90;5.50;99479.00;;;;344114;28;87325;-90
2022/12/05 00:06:11;;;;;;;18.38;15.02;;;5.30;99.90;5.50;99472.00;;;;345099;28;90932;-90
2022/12/05 00:06:24;;;;;;;17.70;14.48;;;5.30;99.90;5.40;99472.00;;;;344353;28;86339;-90
2022/12/05 00:06:37;;;;;;;18.42;14.05;;;5.20;99.90;5.50;99476.00;;;;346831;28;92106;-90
2022/12/05 00:06:49;;;;;;;19.73;14.32;;;5.20;99.90;5.40;99478.00;;;;344329;28;87184;-90
2022/12/05 00:07:00;;;;;;;19.77;14.23;;;5.30;99.90;5.30;99477.00;;;;345373;28;91083;-90
2022/12/05 00:07:12;;;;;;;18.05;14.05;;;5.20;99.90;5.30;99482.00;;;;342992;28;86061;-89
2022/12/05 00:07:24;;;;;;;16.92;14.30;;;5.20;99.90;5.30;99471.00;;;;342753;28;90312;-91
2022/12/05 00:07:37;;;;;;;17.35;14.68;;;5.20;99.90;5.30;99484.00;;;;341610;28;86243;-91
2022/12/05 00:07:48;;;;;;;18.05;14.85;;;5.20;99.90;5.30;99481.00;;;;346728;28;91713;-90
2022/12/05 00:08:00;;;;;;;17.95;14.77;;;5.20;99.90;5.30;99473.00;;;;343048;28;86116;-90
2022/12/05 00:08:12;;;;;;;17.67;14.50;;;5.20;99.90;5.50;99483.00;;;;343915;28;92043;-91
2022/12/05 00:08:24;;;;;;;17.80;14.23;;;5.20;99.90;5.60;99473.00;;;;344242;28;86364;-91
2022/12/05 00:08:36;;;;;;;17.67;13.55;;;5.20;99.90;5.40;99472.00;;;;344061;28;91179;-90
2022/12/05 00:08:48;;;;;;;17.15;13.23;;;5.20;99.90;5.40;99476.00;;;;341739;28;83578;-91
2022/12/05 00:09:01;;;;;;;17.30;13.70;;;5.20;99.90;5.40;99484.00;;;;343945;28;92085;-91
2022/12/05 00:09:13;;;;;;;17.30;13.90;;;5.20;99.90;5.40;99478.00;;;;342691;28;87696;-90
2022/12/05 00:09:25;;;;;;;18.13;13.60;;;5.20;99.90;5.40;99481.00;;;;339875;28;92912;-90
2022/12/05 00:09:37;;;;;;;18.10;14.00;;;5.20;99.90;5.40;99469.00;;;;341503;28;87814;-90
2022/12/05 00:09:49;;;;;;;17.27;14.10;;;5.20;99.90;5.40;99474.00;;;;342667;28;90565;-91
2022/12/05 00:10:02;;;;;;;17.63;13.95;;;5.20;99.90;5.30;99479.00;;;;340212;28;87629;-91
2022/12/05 00:10:14;;;;;;;17.67;14.27;;;5.20;99.90;5.30;99478.00;;;;342704;28;91431;-90
2022/12/05 00:10:26;;;;;;;17.27;14.27;;;5.20;99.90;5.30;99473.00;;;;344269;28;87195;-91
2022/12/05 00:10:38;;;;;;;16.48;13.68;;;5.20;99.90;5.30;99471.00;;;;345493;28;91755;-90
2022/12/05 00:10:50;;;;;;;17.45;13.80;;;5.20;99.90;5.20;99472.00;;;;343044;28;84695;-90
2022/12/05 00:11:02;;;;;;;18.10;13.93;;;5.20;99.90;5.20;99477.00;;;;345420;28;91779;-91
2022/12/05 00:11:16;;;;;;;17.85;13.60;;;5.20;99.90;5.20;99476.00;;;;344321;28;85912;-91
2022/12/05 00:11:30;;;;;;;15.93;12.75;;;5.20;99.90;5.20;99462.00;;;;345322;28;92680;-90
2022/12/05 00:11:43;;;;;;;15.13;12.30;;;5.20;99.90;5.30;99468.00;;;;345663;28;86557;-90
2022/12/05 00:11:55;;;;;;;15.82;12.77;;;5.20;99.90;5.30;99475.00;;;;345291;28;90764;-90
2022/12/05 00:12:08;;;;;;;16.63;13.20;;;5.20;99.90;5.40;99480.00;;;;341600;28;87105;-90
2022/12/05 00:12:20;;;;;;;17.35;13.70;;;5.20;99.90;5.40;99473.00;;;;344123;28;90824;-91
2022/12/05 00:12:32;;;;;;;17.45;13.57;;;5.20;99.90;5.30;99481.00;;;;342815;28;87378;-89
2022/12/05 00:12:44;;;;;;;15.75;12.75;;;5.20;99.90;5.20;99469.00;;;;343959;28;91672;-90
2022/12/05 00:12:56;;;;;;;15.13;12.55;;;5.20;99.90;5.30;99474.00;;;;342811;28;87215;-90
2022/12/05 00:13:07;;;;;;;16.95;13.07;;;5.20;99.90;5.30;99480.00;;;;342647;28;90755;-91
2022/12/05 00:13:19;;;;;;;19.30;13.15;;;5.20;99.90;5.30;99469.00;;;;344356;28;87492;-91
2022/12/05 00:13:31;;;;;;;18.60;12.88;;;5.20;99.90;5.30;99472.00;;;;345442;28;92530;-90
2022/12/05 00:13:44;;;;;;;16.63;11.90;;;5.10;99.90;5.30;99477.00;;;;345471;28;86406;-90
2022/12/05 00:13:57;;;;;;;14.65;12.18;;;5.20;99.90;5.30;99480.00;;;;345358;28;92460;-90
2022/12/05 00:14:10;;;;;;;15.93;12.88;;;5.10;99.90;5.40;99476.00;;;;344304;28;86117;-91
2022/12/05 00:14:21;;;;;;;16.85;13.32;;;5.20;99.90;5.30;99473.00;;;;341324;28;90868;-90
2022/12/05 00:14:33;;;;;;;17.02;13.38;;;5.10;99.90;5.30;99477.00;;;;345696;28;86046;-90
2022/12/05 00:14:45;;;;;;;15.82;13.15;;;5.10;99.90;5.30;99466.00;;;;344095;28;91567;-91
2022/12/05 00:14:57;;;;;;;15.56;12.92;;;5.10;99.90;5.30;99479.00;;;;345644;28;86768;-90
2022/12/05 00:15:11;;;;;;;15.30;12.25;;;5.10;99.90;5.30;99468.00;;;;339976;28;91824;-90
2022/12/05 00:15:23;;;;;;;16.00;12.85;;;5.10;99.90;5.20;99472.00;;;;344330;28;87058;-90
2022/12/05 00:15:40;;;;;;;17.95;13.32;;;5.20;99.90;5.20;99474.00;;;;341160;28;91781;-90
2022/12/05 00:15:52;;;;;;;17.23;13.00;;;5.10;99.90;5.20;99472.00;;;;342936;28;87278;-90
2022/12/05 00:16:10;;;;;;;16.75;13.60;;;5.10;99.90;5.10;99470.00;;;;341351;28;92285;-90
2022/12/05 00:16:23;;;;;;;19.35;14.73;;;5.10;99.90;5.10;99462.00;;;;342932;28;86234;-90
2022/12/05 00:16:37;;;;;;;19.33;14.73;;;5.10;99.90;5.10;99473.00;;;;340971;28;91820;-90
2022/12/05 00:16:49;;;;;;;18.55;14.05;;;5.10;99.90;5.10;99460.00;;;;341642;28;86845;-90
2022/12/05 00:17:01;;;;;;;17.73;13.23;;;5.10;99.90;5.10;99468.00;;;;339858;28;91116;-90
2022/12/05 00:17:13;;;;;;;17.92;13.55;;;5.00;99.90;5.10;99469.00;;;;344467;28;86226;-90
2022/12/05 00:17:25;;;;;;;17.73;14.20;;;5.00;99.90;5.10;99466.00;;;;340011;28;91313;-90
2022/12/05 00:17:39;;;;;;;16.35;13.80;;;5.00;99.90;5.00;99465.00;;;;341579;28;87348;-91
2022/12/05 00:17:51;;;;;;;15.82;13.52;;;5.00;99.90;5.00;99465.00;;;;342643;28;92661;-90
2022/12/05 00:18:03;;;;;;;16.42;13.32;;;5.00;99.90;4.90;99472.00;;;;340268;28;86124;-91
2022/12/05 00:18:15;;;;;;;17.35;13.43;;;5.00;99.90;5.00;99470.00;;;;342593;28;91508;-90
2022/12/05 00:18:27;;;;;;;17.55;13.55;;;5.00;99.90;5.00;99466.00;;;;341640;28;87056;-90
2022/12/05 00:18:39;;;;;;;16.83;13.40;;;5.00;99.90;5.10;99465.00;;;;344074;28;90205;-90
2022/12/05 00:18:51;;;;;;;16.70;12.93;;;5.00;99.90;5.10;99473.00;;;;342983;28;86711;-90
2022/12/05 00:19:04;;;;;;;16.50;12.55;;;4.90;99.90;5.10;99470.00;;;;344016;28;90804;-90
2022/12/05 00:19:16;;;;;;;15.57;12.55;;;5.00;99.90;5.10;99473.00;;;;342969;28;86164;-90
2022/12/05 00:19:28;;;;;;;15.75;12.85;;;5.00;99.90;5.10;99469.00;;;;344011;28;91392;-90
2022/12/05 00:19:40;;;;;;;15.50;12.68;;;5.00;99.90;5.10;99478.00;;;;344171;28;86238;-90
2022/12/05 00:19:51;;;;;;;16.20;13.02;;;5.00;99.90;5.10;99468.00;;;;343896;28;91786;-90
2022/12/05 00:20:08;;;;;;;16.67;13.27;;;5.00;99.90;5.20;99477.00;;;;343021;28;86176;-90
2022/12/05 00:20:20;;;;;;;17.10;13.82;;;5.00;99.90;5.30;99463.00;;;;346508;27;91819;-90
2022/12/05 00:20:32;;;;;;;17.63;13.85;;;5.00;99.90;5.30;99464.00;;;;341680;28;86188;-90
2022/12/05 00:20:45;;;;;;;16.44;13.44;;;5.00;99.90;5.30;99472.00;;;;342625;28;92328;-90
2022/12/05 00:20:57;;;;;;;15.23;12.93;;;5.00;99.90;5.20;99474.00;;;;340215;28;86616;-90
2022/12/05 00:21:15;;;;;;;16.73;12.93;;;5.00;99.90;5.10;99475.00;;;;342709;28;90525;-90
2022/12/05 00:21:29;;;;;;;16.23;12.50;;;5.00;99.90;5.10;99478.00;;;;342962;28;87866;-90
2022/12/05 00:21:41;;;;;;;16.45;12.93;;;5.00;99.90;5.20;99473.00;;;;342574;28;90772;-90
2022/12/05 00:21:53;;;;;;;17.95;13.70;;;5.00;99.90;5.10;99468.00;;;;344314;28;87214;-90
2022/12/05 00:22:05;;;;;;;17.40;13.13;;;5.00;99.90;5.20;99469.00;;;;342522;28;93095;-90
2022/12/05 00:22:17;;;;;;;17.05;13.02;;;5.00;99.90;5.20;99474.00;;;;344000;28;86144;-91
2022/12/05 00:22:29;;;;;;;15.95;13.00;;;5.00;99.90;5.10;99473.00;;;;343996;28;90765;-90
2022/12/05 00:22:41;;;;;;;15.95;13.07;;;5.00;99.90;5.20;99473.00;;;;344323;28;85006;-91
2022/12/05 00:22:52;;;;;;;15.90;12.85;;;5.00;99.90;5.10;99466.00;;;;344021;28;90796;-90
2022/12/05 00:23:04;;;;;;;15.65;12.85;;;5.00;99.90;5.10;99471.00;;;;341497;28;85980;-90
2022/12/05 00:23:16;;;;;;;16.17;12.98;;;5.00;99.90;5.10;99466.00;;;;344133;28;92380;-90
2022/12/05 00:23:28;;;;;;;16.88;13.40;;;5.00;99.90;5.00;99470.00;;;;341581;28;86356;-90
2022/12/05 00:23:40;;;;;;;17.58;13.40;;;5.00;99.90;4.90;99468.00;;;;342632;28;90427;-90
2022/12/05 00:23:53;;;;;;;16.65;13.50;;;4.90;99.90;5.00;99468.00;;;;341580;28;86028;-90
2022/12/05 00:24:07;;;;;;;16.52;13.95;;;4.90;99.90;4.90;99468.00;;;;341202;28;91756;-90
2022/12/05 00:24:19;;;;;;;17.55;14.27;;;4.90;99.90;4.90;99468.00;;;;341520;28;87262;-91
2022/12/05 00:24:31;;;;;;;17.34;14.00;;;4.90;99.90;5.00;99468.00;;;;342636;28;92444;-91
2022/12/05 00:24:43;;;;;;;18.20;14.48;;;4.90;99.90;5.00;99470.00;;;;340300;28;86037;-90
2022/12/05 00:24:55;;;;;;;17.70;14.45;;;4.80;99.90;5.10;99461.00;;;;344001;28;91953;-90
2022/12/05 00:25:07;;;;;;;15.88;13.32;;;4.80;99.90;5.20;99461.00;;;;342980;28;86146;-90
2022/12/05 00:25:19;;;;;;;15.23;12.75;;;4.80;99.90;5.20;99468.00;;;;342749;28;91131;-90
2022/12/05 00:25:31;;;;;;;15.38;12.57;;;4.90;99.90;5.30;99464.00;;;;343041;28;86645;-90
2022/12/05 00:25:43;;;;;;;16.20;13.15;;;4.90;99.90;5.10;99463.00;;;;344029;28;91877;-90
2022/12/05 00:25:55;;;;;;;16.88;13.50;;;4.90;99.90;5.10;99468.00;;;;344107;28;87174;-90
2022/12/05 00:26:06;;;;;;;16.65;12.75;;;4.90;99.90;5.10;99463.00;;;;344056;28;91451;-90
2022/12/05 00:26:18;;;;;;;15.80;12.07;;;4.90;99.90;5.10;99458.00;;;;340223;28;86277;-91
2022/12/05 00:26:30;;;;;;;15.60;12.25;;;4.90;99.90;5.20;99473.00;;;;345405;28;91710;-90
2022/12/05 00:26:42;;;;;;;15.40;12.30;;;4.90;99.90;5.20;99477.00;;;;344352;28;85874;-90
2022/12/05 00:26:54;;;;;;;15.38;12.27;;;4.90;99.90;5.20;99467.00;;;;342732;28;90707;-91
2022/12/05 00:27:06;;;;;;;15.02;12.18;;;4.90;99.90;5.20;99459.00;;;;341594;28;86215;-91
2022/12/05 00:27:18;;;;;;;15.10;12.07;;;4.90;99.90;5.30;99470.00;;;;341414;28;91607;-90
2022/12/05 00:27:30;;;;;;;15.07;11.63;;;4.90;99.90;5.40;99470.00;;;;344324;28;85566;-91
2022/12/05 00:27:42;;;;;;;14.93;11.15;;;4.90;99.90;5.50;99469.00;;;;342611;28;91787;-91
2022/12/05 00:27:53;;;;;;;15.40;11.40;;;5.00;99.90;5.60;99471.00;;;;341642;28;85700;-90
2022/12/05 00:28:05;;;;;;;14.68;11.38;;;5.00;99.90;5.60;99473.00;;;;339756;28;92428;-90
2022/12/05 00:28:17;;;;;;;14.52;11.60;;;5.00;99.90;5.30;99475.00;;;;344154;28;87394;-90
2022/12/05 00:28:31;;;;;;;15.30;12.23;;;5.00;99.90;5.40;99465.00;;;;342666;28;92188;-90
2022/12/05 00:28:43;;;;;;;15.85;12.07;;;5.00;99.90;5.50;99470.00;;;;344366;28;86142;-90
2022/12/05 00:28:56;;;;;;;15.55;11.65;;;5.00;99.90;5.40;99472.00;;;;343983;28;91441;-90
2022/12/05 00:29:07;;;;;;;15.48;12.10;;;5.00;99.90;5.50;99477.00;;;;341568;28;86049;-90
2022/12/05 00:29:19;;;;;;;14.80;11.93;;;5.00;99.90;5.60;99471.00;;;;344017;28;90838;-90
2022/12/05 00:29:31;;;;;;;14.70;11.75;;;5.00;99.90;5.60;99468.00;;;;340383;28;83312;-90
2022/12/05 00:29:43;;;;;;;14.25;12.07;;;5.00;99.90;5.60;99470.00;;;;345387;28;92032;-90
2022/12/05 00:29:55;;;;;;;14.73;12.32;;;5.10;99.90;5.60;99470.00;;;;341600;28;86271;-90
2022/12/05 00:30:08;;;;;;;14.95;11.75;;;5.10;99.90;5.50;99475.00;;;;342623;28;91786;-90
2022/12/05 00:30:19;;;;;;;16.13;12.20;;;5.10;99.90;5.50;99480.00;;;;340157;28;87308;-90
2022/12/05 00:30:31;;;;;;;15.30;12.15;;;5.10;99.90;5.50;99480.00;;;;345413;28;90793;-90
2022/12/05 00:30:43;;;;;;;16.15;12.38;;;5.10;99.90;5.50;99479.00;;;;342912;28;87367;-91
2022/12/05 00:30:55;;;;;;;16.70;12.10;;;5.10;99.90;5.50;99476.00;;;;343935;28;90578;-90
2022/12/05 00:31:09;;;;;;;15.48;11.23;;;5.10;99.90;5.50;99472.00;;;;342903;28;87223;-90
2022/12/05 00:31:22;;;;;;;15.65;11.65;;;5.10;99.90;5.50;99480.00;;;;345498;28;90794;-90
2022/12/05 00:31:34;;;;;;;14.80;12.40;;;5.10;99.90;5.40;99472.00;;;;345442;28;87232;-90
2022/12/05 00:31:46;;;;;;;15.70;12.82;;;5.10;99.90;5.40;99467.00;;;;344128;28;90811;-90
2022/12/05 00:31:58;;;;;;;16.45;12.55;;;5.10;99.90;5.50;99468.00;;;;344424;28;86031;-90
2022/12/05 00:32:10;;;;;;;16.40;11.85;;;5.10;99.90;5.50;99475.00;;;;341339;28;91767;-90
2022/12/05 00:32:22;;;;;;;16.25;11.73;;;5.10;99.90;5.50;99476.00;;;;344214;28;87631;-90
2022/12/05 00:32:34;;;;;;;17.83;12.27;;;5.10;99.90;5.50;99469.00;;;;344055;28;91825;-90
2022/12/05 00:32:45;;;;;;;19.70;13.25;;;5.10;99.90;5.50;99483.00;;;;344340;28;86959;-90
2022/12/05 00:32:57;;;;;;;19.60;13.85;;;5.00;99.90;5.40;99477.00;;;;342615;28;91821;-90
2022/12/05 00:33:09;;;;;;;17.40;13.77;;;5.00;99.90;5.40;99478.00;;;;343008;28;86121;-90
2022/12/05 00:33:21;;;;;;;16.10;13.07;;;5.10;99.90;5.50;99478.00;;;;345375;28;90392;-90
2022/12/05 00:33:33;;;;;;;16.42;13.27;;;5.00;99.90;5.40;99478.00;;;;344311;28;86949;-90
2022/12/05 00:33:45;;;;;;;18.90;13.38;;;5.00;99.90;5.50;99478.00;;;;343776;28;91797;-90
2022/12/05 00:33:59;;;;;;;19.88;13.30;;;5.10;99.90;5.50;99472.00;;;;343050;28;87580;-90
2022/12/05 00:34:11;;;;;;;18.85;12.98;;;5.10;99.90;5.50;99474.00;;;;343954;28;92299;-90
2022/12/05 00:34:23;;;;;;;18.75;13.55;;;5.10;99.90;5.60;99479.00;;;;342927;28;87953;-91
2022/12/05 00:34:35;;;;;;;19.50;14.48;;;5.10;99.90;5.50;99475.00;;;;341366;28;91722;-90
2022/12/05 00:34:47;;;;;;;21.60;14.73;;;5.10;99.90;5.60;99475.00;;;;345656;28;87627;-90
2022/12/05 00:34:59;;;;;;;24.90;14.63;;;5.10;99.90;5.70;99476.00;;;;339941;28;91179;-90
2022/12/05 00:35:11;;;;;;;23.70;13.73;;;5.10;99.90;5.70;99477.00;;;;343601;28;86966;-90
2022/12/05 00:35:22;;;;;;;19.70;13.75;;;5.10;99.90;5.60;99472.00;;;;338582;28;91499;-90
2022/12/05 00:35:35;;;;;;;23.80;15.77;;;5.10;99.90;5.60;99482.00;;;;342865;28;87617;-90
2022/12/05 00:35:46;;;;;;;28.60;17.80;;;5.10;99.90;5.60;99477.00;;;;342459;28;90855;-90
2022/12/05 00:36:11;;;;;;;30.42;19.02;;;5.10;99.90;5.50;99479.00;;;;341610;28;85963;-90
2022/12/05 00:36:25;;;;;;;27.50;18.92;;;5.10;99.90;5.70;99481.00;;;;343887;28;92008;-90
2022/12/05 00:36:37;;;;;;;28.48;18.92;;;5.10;99.90;5.70;99478.00;;;;342963;28;86349;-90
2022/12/05 00:36:49;;;;;;;30.00;19.40;;;5.10;99.90;5.40;99478.00;;;;342691;28;91011;-90
2022/12/05 00:37:01;;;;;;;29.40;19.38;;;5.10;99.90;5.30;99484.00;;;;344266;28;85795;-90
2022/12/05 00:37:13;;;;;;;26.58;17.95;;;5.10;99.90;5.20;99479.00;;;;342767;28;91584;-90
2022/12/05 00:37:25;;;;;;;26.27;17.13;;;5.10;99.90;5.10;99483.00;;;;342896;28;86241;-90
2022/12/05 00:37:36;;;;;;;27.58;17.58;;;5.10;99.90;5.10;99484.00;;;;338657;28;92195;-90
2022/12/05 00:37:49;;;;;;;31.05;19.00;;;5.10;99.90;5.00;99469.00;;;;340046;28;87130;-91
2022/12/05 00:38:00;;;;;;;31.52;19.35;;;5.10;99.90;5.00;99486.00;;;;342691;28;92012;-90
2022/12/05 00:38:12;;;;;;;33.15;20.23;;;5.00;99.90;4.90;99481.00;;;;345660;28;86973;-90
2022/12/05 00:38:24;;;;;;;30.08;19.67;;;5.00;99.90;4.90;99476.00;;;;339791;28;91648;-90
2022/12/05 00:38:36;;;;;;;29.50;19.10;;;5.00;99.90;4.90;99475.00;;;;342923;28;87046;-90
2022/12/05 00:38:48;;;;;;;26.35;18.83;;;5.00;99.90;4.90;99483.00;;;;339897;28;92753;-90
2022/12/05 00:39:07;;;;;;;28.10;18.55;;;5.00;99.90;5.10;99478.00;;;;341485;28;87452;-91
2022/12/05 00:39:19;;;;;;;29.63;18.40;;;5.00;99.90;5.10;99482.00;;;;342699;28;91041;-90
2022/12/05 00:39:31;;;;;;;26.42;17.75;;;5.00;99.90;5.00;99481.00;;;;345652;28;87092;-90
2022/12/05 00:39:43;;;;;;;26.58;17.90;;;5.00;99.90;5.00;99480.00;;;;342602;28;90645;-90
2022/12/05 00:39:55;;;;;;;25.52;17.25;;;5.00;99.90;4.90;99476.00;;;;341628;28;86061;-90
2022/12/05 00:40:08;;;;;;;24.58;16.77;;;5.00;99.90;5.00;99484.00;;;;342603;28;90925;-90
2022/12/05 00:40:19;;;;;;;23.35;16.45;;;4.90;99.90;5.00;99487.00;;;;342923;28;87201;-90
2022/12/05 00:40:34;;;;;;;25.08;16.13;;;4.90;99.90;4.90;99479.00;;;;342529;28;92694;-91
2022/12/05 00:40:46;;;;;;;26.60;16.33;;;4.90;99.90;4.90;99485.00;;;;344284;28;86023;-90
2022/12/05 00:41:08;;;;;;;26.77;17.00;;;4.90;99.90;4.70;99481.00;;;;343945;28;92111;-90
2022/12/05 00:41:23;;;;;;;25.27;17.70;;;4.90;99.90;4.70;99468.00;;;;345386;28;86457;-90
2022/12/05 00:41:35;;;;;;;26.52;18.67;;;4.80;99.90;4.70;99488.00;;;;342644;28;90515;-91
2022/12/05 00:41:47;;;;;;;28.95;19.58;;;4.80;99.90;4.70;99487.00;;;;344166;28;86415;-90
2022/12/05 00:41:59;;;;;;;31.95;21.33;;;4.80;99.90;4.70;99475.00;;;;342765;28;88862;-90
2022/12/05 00:42:11;;;;;;;37.33;22.63;;;4.80;99.90;4.70;99487.00;;;;345501;28;86258;-90
2022/12/05 00:42:22;;;;;;;37.08;23.85;;;4.80;99.90;4.60;99478.00;;;;343938;28;91375;-90
2022/12/05 00:42:34;;;;;;;39.90;24.60;;;4.70;99.90;4.70;99471.00;;;;342843;28;85994;-90
2022/12/05 00:42:47;;;;;;;38.78;24.48;;;4.70;99.90;4.60;99474.00;;;;342570;28;92928;-90
2022/12/05 00:43:03;;;;;;;38.90;24.10;;;4.70;99.90;4.70;99481.00;;;;344271;28;87684;-88
2022/12/05 00:43:14;;;;;;;43.38;24.45;;;4.70;99.90;4.80;99478.00;;;;341390;28;90777;-90
2022/12/05 00:43:26;;;;;;;42.95;24.13;;;4.70;99.90;4.80;99475.00;;;;341526;28;87583;-90
2022/12/05 00:43:38;;;;;;;42.92;24.45;;;4.70;99.90;4.70;99477.00;;;;345290;28;92259;-90
2022/12/05 00:43:50;;;;;;;42.58;25.02;;;4.70;99.90;4.80;99480.00;;;;341559;28;85544;-90
2022/12/05 00:44:03;;;;;;;43.83;26.58;;;4.70;99.90;4.80;99483.00;;;;341287;28;91238;-90
2022/12/05 00:44:15;;;;;;;38.67;24.20;;;4.70;99.90;4.90;99483.00;;;;342962;28;85760;-90
2022/12/05 00:44:26;;;;;;;37.60;21.80;;;4.70;99.90;4.90;99479.00;;;;342599;28;92249;-90
2022/12/05 00:44:38;;;;;;;41.03;23.77;;;4.70;99.90;5.00;99480.00;;;;340202;28;87563;-90
2022/12/05 00:44:50;;;;;;;43.35;25.70;;;4.70;99.90;5.00;99474.00;;;;340949;28;92323;-91
2022/12/05 00:45:03;;;;;;;41.75;26.15;;;4.70;99.90;5.00;99479.00;;;;344250;28;86068;-90
2022/12/05 00:45:14;;;;;;;39.75;25.55;;;4.70;99.90;5.00;99474.00;;;;341188;28;91044;-90
2022/12/05 00:45:26;;;;;;;40.78;25.95;;;4.70;99.90;5.00;99484.00;;;;344023;28;86032;-90
2022/12/05 00:45:38;;;;;;;45.05;26.75;;;4.70;99.90;4.90;99484.00;;;;344032;28;91798;-90
2022/12/05 00:45:50;;;;;;;43.88;26.20;;;4.70;99.90;4.90;99474.00;;;;341499;28;86428;-90
2022/12/05 00:46:21;;;;;;;44.30;26.10;;;4.70;99.90;5.00;99486.00;;;;342620;28;92204;-90
2022/12/05 00:46:34;;;;;;;44.25;25.95;;;4.70;99.90;4.90;99489.00;;;;344133;28;91687;-91
2022/12/05 00:46:46;;;;;;;45.38;25.75;;;4.70;99.90;5.00;99490.00;;;;341246;28;95765;-90
2022/12/05 00:46:57;;;;;;;42.58;25.27;;;4.70;99.90;5.00;99481.00;;;;342762;28;87000;-90
2022/12/05 00:47:09;;;;;;;42.08;25.55;;;4.70;99.90;5.00;99487.00;;;;341167;28;93190;-90
2022/12/05 00:47:21;;;;;;;40.05;24.92;;;4.70;99.90;5.00;99484.00;;;;342957;28;87115;-90
2022/12/05 00:47:35;;;;;;;37.95;24.00;;;4.70;99.90;5.00;99488.00;;;;342526;28;91835;-90
2022/12/05 00:47:47;;;;;;;38.53;24.63;;;4.70;99.90;5.10;99495.00;;;;345312;28;86714;-91
2022/12/05 00:47:58;;;;;;;43.65;25.38;;;4.70;99.90;5.00;99485.00;;;;343816;28;90859;-90
2022/12/05 00:48:10;;;;;;;43.95;24.95;;;4.70;99.90;5.00;99493.00;;;;342963;28;86448;-90
2022/12/05 00:48:22;;;;;;;42.65;24.35;;;4.70;99.90;5.00;99495.00;;;;342490;28;90730;-90
2022/12/05 00:48:34;;;;;;;38.35;23.23;;;4.70;99.90;5.10;99490.00;;;;342925;28;87443;-90
2022/12/05 00:48:46;;;;;;;40.45;23.25;;;4.70;99.90;5.00;99494.00;;;;341337;28;90545;-90
2022/12/05 00:48:59;;;;;;;38.90;22.92;;;4.70;99.90;5.10;99488.00;;;;344305;28;86959;-90
2022/12/05 00:49:11;;;;;;;39.00;23.60;;;4.70;99.90;5.10;99487.00;;;;339903;28;93284;-90
2022/12/05 00:49:23;;;;;;;40.90;23.77;;;4.70;99.90;5.20;99496.00;;;;344296;28;87274;-90
2022/12/05 00:49:35;;;;;;;39.03;22.95;;;4.80;99.90;5.30;99486.00;;;;341316;28;91550;-91
2022/12/05 00:49:47;;;;;;;40.50;23.50;;;4.70;99.90;5.20;99501.00;;;;345670;28;86963;-90
2022/12/05 00:49:59;;;;;;;42.75;25.67;;;4.80;99.90;5.10;99499.00;;;;341277;28;92461;-90
2022/12/05 00:50:11;;;;;;;51.28;29.52;;;4.80;99.90;5.10;99498.00;;;;344313;28;86250;-90
2022/12/05 00:50:23;;;;;;;52.90;31.08;;;4.80;99.90;5.30;99496.00;;;;344009;28;92510;-90
2022/12/05 00:50:35;;;;;;;49.78;29.60;;;4.70;99.90;5.40;99495.00;;;;344319;28;87305;-90
2022/12/05 00:50:46;;;;;;;43.38;28.05;;;4.80;99.90;5.40;99495.00;;;;339975;28;89361;-90
2022/12/05 00:51:13;;;;;;;44.15;28.25;;;4.80;99.90;5.40;99501.00;;;;342948;28;86131;-90
2022/12/05 00:51:34;;;;;;;44.45;29.02;;;4.80;99.90;5.40;99507.00;;;;339679;28;91828;-90
2022/12/05 00:51:46;;;;;;;44.08;28.92;;;4.80;99.90;5.40;99504.00;;;;342922;28;86199;-90
2022/12/05 00:51:58;;;;;;;40.70;26.85;;;4.90;99.90;5.40;99495.00;;;;342994;28;91842;-90
2022/12/05 00:52:10;;;;;;;40.70;26.85;;;4.90;99.90;5.40;99492.00;;;;341840;28;87434;-89
2022/12/05 00:52:22;;;;;;;41.75;26.15;;;4.90;99.90;5.30;99492.00;;;;344174;28;91936;-90
2022/12/05 00:52:34;;;;;;;38.17;24.40;;;4.90;99.90;5.40;99506.00;;;;344309;28;85554;-91
2022/12/05 00:52:47;;;;;;;34.97;21.85;;;4.90;99.90;5.30;99497.00;;;;342777;28;90548;-90
2022/12/05 00:52:59;;;;;;;31.55;20.23;;;4.90;99.90;5.30;99501.00;;;;341693;28;86706;-90
2022/12/05 00:53:10;;;;;;;33.08;20.98;;;4.90;99.90;5.10;99506.00;;;;341718;28;90969;-90
2022/12/05 00:53:23;;;;;;;31.90;20.38;;;4.80;99.90;5.00;99502.00;;;;343477;28;87187;-90
2022/12/05 00:53:35;;;;;;;31.73;21.67;;;4.80;99.90;5.10;99491.00;;;;344319;28;91648;-89
2022/12/05 00:53:47;;;;;;;31.30;20.95;;;4.80;99.90;5.20;99500.00;;;;340383;28;87463;-89
2022/12/05 00:54:01;;;;;;;32.88;21.50;;;4.80;99.90;5.30;99490.00;;;;344371;28;90858;-90
2022/12/05 00:54:14;;;;;;;33.63;21.40;;;4.80;99.90;5.20;99494.00;;;;344498;28;86005;-91
2022/12/05 00:54:26;;;;;;;30.65;20.15;;;4.80;99.90;5.20;99484.00;;;;341536;28;91909;-90
2022/12/05 00:54:38;;;;;;;27.73;19.02;;;4.80;99.90;5.30;99501.00;;;;343280;28;86987;-90
2022/12/05 00:54:50;;;;;;;26.80;17.63;;;4.90;99.90;5.40;99504.00;;;;341542;28;91643;-90
2022/12/05 00:55:03;;;;;;;24.05;16.40;;;4.80;99.90;5.40;99502.00;;;;343288;28;87265;-90
2022/12/05 00:55:15;;;;;;;22.73;15.68;;;4.90;99.90;5.40;99499.00;;;;344124;28;91890;-90
2022/12/05 00:55:26;;;;;;;21.10;16.00;;;4.90;99.90;5.40;99502.00;;;;338038;28;86951;-90
2022/12/05 00:55:38;;;;;;;21.50;16.30;;;4.80;99.90;5.50;99505.00;;;;344192;28;91769;-89
2022/12/05 00:55:50;;;;;;;23.80;16.48;;;4.90;99.90;5.40;99506.00;;;;340645;28;86083;-90
2022/12/05 00:56:10;;;;;;;23.08;15.60;;;4.90;99.90;5.30;99502.00;;;;344550;28;89657;-91
2022/12/05 00:56:23;;;;;;;18.55;14.98;;;4.90;99.90;5.30;99511.00;;;;340611;28;83506;-90
2022/12/05 00:56:35;;;;;;;18.25;14.88;;;4.90;99.90;5.40;99496.00;;;;344501;28;89550;-89
2022/12/05 00:56:47;;;;;;;17.90;13.68;;;4.90;99.90;5.40;99503.00;;;;337955;28;86598;-90